sensor_id;sensor_type;location;lat;lon;timestamp;pressure;altitude;pressure_sealevel;temperature;humidity
21129;BME280;10722;51.910;8.352;2022-10-22T00:02:30;100309.53;;;12.53;100.00
21129;BME280;10722;51.910;8.352;2022-10-22T00:05:16;100313.81;;;12.51;100.00
21129;BME280;10722;51.910;8.352;2022-10-22T00:08:02;100311.19;;;12.41;100.00
21129;BME280;10722;51.910;8.352;2022-10-22T00:10:48;100312.88;;;12.32;100.00
21129;BME280;10722;51.910;8.352;2022-10-22T00:13:33;100320.69;;;12.34;100.00
21129;BME280;10722;51.910;8.352;2022-10-22T00:16:19;100317.22;;;12.35;100.00
21129;BME280;10722;51.910;8.352;2022-10-22T00:19:05;100308.56;;;12.28;100.00
21129;BME280;10722;51.910;8.352;2022-10-22T00:21:50;100319.81;;;12.35;100.00
21129;BME280;10722;51.910;8.352;2022-10-22T00:24:36;100325.00;;;12.29;100.00
21129;BME280;10722;51.910;8.352;2022-10-22T00:27:22;100324.09;;;12.22;100.00
21129;BME280;10722;51.910;8.352;2022-10-22T00:30:08;100323.31;;;12.40;100.00
21129;BME280;10722;51.910;8.352;2022-10-22T00:32:53;100335.25;;;12.10;100.00
21129;BME280;10722;51.910;8.352;2022-10-22T00:35:39;100337.03;;;12.15;100.00
21129;BME280;10722;51.910;8.352;2022-10-22T00:38:24;100343.97;;;12.17;100.00
21129;BME280;10722;51.910;8.352;2022-10-22T00:41:09;100344.88;;;12.30;100.00
21129;BME280;10722;51.910;8.352;2022-10-22T00:43:58;100340.53;;;12.27;100.00
21129;BME280;10722;51.910;8.352;2022-10-22T00:46:44;100349.22;;;12.37;100.00
21129;BME280;10722;51.910;8.352;2022-10-22T00:49:30;100344.03;;;12.31;100.00
21129;BME280;10722;51.910;8.352;2022-10-22T00:52:16;100343.13;;;12.23;100.00
21129;BME280;10722;51.910;8.352;2022-10-22T00:55:02;100349.13;;;12.14;100.00
21129;BME280;10722;51.910;8.352;2022-10-22T00:57:49;100353.41;;;12.07;100.00
21129;BME280;10722;51.910;8.352;2022-10-22T01:00:34;100352.63;;;12.24;100.00
21129;BME280;10722;51.910;8.352;2022-10-22T01:03:20;100352.59;;;12.18;100.00
21129;BME280;10722;51.910;8.352;2022-10-22T01:06:05;100338.75;;;12.13;100.00
21129;BME280;10722;51.910;8.352;2022-10-22T01:09:13;100341.38;;;12.22;100.00
21129;BME280;10722;51.910;8.352;2022-10-22T01:15:22;100333.56;;;12.19;100.00
21129;BME280;10722;51.910;8.352;2022-10-22T01:21:30;100335.25;;;12.04;100.00
21129;BME280;10722;51.910;8.352;2022-10-22T01:27:55;100335.34;;;12.23;100.00
21129;BME280;10722;51.910;8.352;2022-10-22T01:30:48;100330.97;;;12.13;100.00
21129;BME280;10722;51.910;8.352;2022-10-22T01:33:37;100335.34;;;12.24;100.00
21129;BME280;10722;51.910;8.352;2022-10-22T01:36:24;100329.25;;;12.18;100.00
21129;BME280;10722;51.910;8.352;2022-10-22T01:39:11;100335.31;;;12.18;100.00
21129;BME280;10722;51.910;8.352;2022-10-22T01:41:58;100329.28;;;12.22;100.00
21129;BME280;10722;51.910;8.352;2022-10-22T01:44:44;100337.91;;;12.14;100.00
21129;BME280;10722;51.910;8.352;2022-10-22T01:47:46;100328.38;;;12.16;100.00
21129;BME280;10722;51.910;8.352;2022-10-22T01:53:49;100329.25;;;12.11;100.00
21129;BME280;10722;51.910;8.352;2022-10-22T01:56:52;100345.59;;;12.04;100.00
21129;BME280;10722;51.910;8.352;2022-10-22T02:02:57;100337.94;;;12.20;100.00
21129;BME280;10722;51.910;8.352;2022-10-22T02:05:48;100323.16;;;12.06;100.00
21129;BME280;10722;51.910;8.352;2022-10-22T02:08:37;100320.56;;;12.03;100.00
21129;BME280;10722;51.910;8.352;2022-10-22T02:11:23;100315.34;;;12.00;100.00
21129;BME280;10722;51.910;8.352;2022-10-22T02:14:09;100314.63;;;12.32;100.00
21129;BME280;10722;51.910;8.352;2022-10-22T02:16:57;100281.78;;;12.28;100.00
21129;BME280;10722;51.910;8.352;2022-10-22T02:20:02;100278.31;;;12.29;100.00
21129;BME280;10722;51.910;8.352;2022-10-22T02:22:50;100271.41;;;12.31;100.00
21129;BME280;10722;51.910;8.352;2022-10-22T02:25:39;100269.59;;;12.15;100.00
21129;BME280;10722;51.910;8.352;2022-10-22T02:28:32;100279.09;;;12.13;100.00
21129;BME280;10722;51.910;8.352;2022-10-22T02:31:25;100287.66;;;11.95;100.00
21129;BME280;10722;51.910;8.352;2022-10-22T02:34:17;100280.72;;;11.94;100.00
21129;BME280;10722;51.910;8.352;2022-10-22T02:37:04;100273.84;;;11.97;100.00
21129;BME280;10722;51.910;8.352;2022-10-22T02:39:51;100278.97;;;11.88;100.00
21129;BME280;10722;51.910;8.352;2022-10-22T02:42:38;100282.38;;;11.78;100.00
21129;BME280;10722;51.910;8.352;2022-10-22T02:45:25;100285.06;;;11.93;100.00
21129;BME280;10722;51.910;8.352;2022-10-22T02:48:11;100296.34;;;12.04;100.00
21129;BME280;10722;51.910;8.352;2022-10-22T02:50:57;100297.06;;;11.82;100.00
21129;BME280;10722;51.910;8.352;2022-10-22T02:53:42;100304.06;;;11.92;100.00
21129;BME280;10722;51.910;8.352;2022-10-22T02:56:30;100308.31;;;11.84;100.00
21129;BME280;10722;51.910;8.352;2022-10-22T02:59:16;100296.88;;;11.54;100.00
21129;BME280;10722;51.910;8.352;2022-10-22T03:02:03;100305.53;;;11.52;100.00
21129;BME280;10722;51.910;8.352;2022-10-22T03:04:49;100324.59;;;11.63;100.00
21129;BME280;10722;51.910;8.352;2022-10-22T03:07:34;100324.59;;;11.61;100.00
21129;BME280;10722;51.910;8.352;2022-10-22T03:10:19;100335.78;;;11.57;100.00
21129;BME280;10722;51.910;8.352;2022-10-22T03:13:05;100332.41;;;11.66;100.00
21129;BME280;10722;51.910;8.352;2022-10-22T03:15:50;100340.16;;;11.67;100.00
21129;BME280;10722;51.910;8.352;2022-10-22T03:18:35;100336.81;;;11.81;100.00
21129;BME280;10722;51.910;8.352;2022-10-22T03:21:49;100336.88;;;11.87;100.00
21129;BME280;10722;51.910;8.352;2022-10-22T03:24:37;100331.53;;;11.67;100.00
21129;BME280;10722;51.910;8.352;2022-10-22T03:27:23;100322.75;;;11.48;100.00
21129;BME280;10722;51.910;8.352;2022-10-22T03:30:10;100323.69;;;11.59;100.00
21129;BME280;10722;51.910;8.352;2022-10-22T03:32:56;100327.25;;;11.77;100.00
21129;BME280;10722;51.910;8.352;2022-10-22T03:35:43;100334.19;;;11.75;100.00
21129;BME280;10722;51.910;8.352;2022-10-22T03:38:29;100337.50;;;11.57;100.00
21129;BME280;10722;51.910;8.352;2022-10-22T03:41:15;100340.06;;;11.54;100.00
21129;BME280;10722;51.910;8.352;2022-10-22T03:44:02;100355.69;;;11.63;100.00
21129;BME280;10722;51.910;8.352;2022-10-22T03:46:48;100353.94;;;11.59;100.00
21129;BME280;10722;51.910;8.352;2022-10-22T03:49:34;100351.25;;;11.47;100.00
21129;BME280;10722;51.910;8.352;2022-10-22T03:52:19;100352.19;;;11.55;100.00
21129;BME280;10722;51.910;8.352;2022-10-22T03:55:06;100357.25;;;11.45;100.00
21129;BME280;10722;51.910;8.352;2022-10-22T03:57:51;100362.50;;;11.50;100.00
21129;BME280;10722;51.910;8.352;2022-10-22T04:00:36;100366.88;;;11.57;100.00
21129;BME280;10722;51.910;8.352;2022-10-22T04:03:22;100375.50;;;11.56;100.00
21129;BME280;10722;51.910;8.352;2022-10-22T04:06:10;100383.19;;;11.49;100.00
21129;BME280;10722;51.910;8.352;2022-10-22T04:08:56;100387.75;;;11.74;100.00
21129;BME280;10722;51.910;8.352;2022-10-22T04:11:41;100381.53;;;11.52;100.00
21129;BME280;10722;51.910;8.352;2022-10-22T04:14:29;100380.59;;;11.44;100.00
21129;BME280;10722;51.910;8.352;2022-10-22T04:17:15;100369.41;;;11.51;100.00
21129;BME280;10722;51.910;8.352;2022-10-22T04:20:01;100378.16;;;11.65;100.00
21129;BME280;10722;51.910;8.352;2022-10-22T04:22:46;100383.34;;;11.64;100.00
21129;BME280;10722;51.910;8.352;2022-10-22T04:25:32;100378.13;;;11.61;100.00
21129;BME280;10722;51.910;8.352;2022-10-22T04:28:17;100380.66;;;11.52;100.00
21129;BME280;10722;51.910;8.352;2022-10-22T04:31:10;100385.88;;;11.58;100.00
21129;BME280;10722;51.910;8.352;2022-10-22T04:33:58;100382.44;;;11.60;100.00
21129;BME280;10722;51.910;8.352;2022-10-22T04:36:44;100383.19;;;11.44;100.00
21129;BME280;10722;51.910;8.352;2022-10-22T04:39:29;100391.03;;;11.53;100.00
21129;BME280;10722;51.910;8.352;2022-10-22T04:42:15;100391.91;;;11.57;100.00
21129;BME280;10722;51.910;8.352;2022-10-22T04:45:00;100385.88;;;11.59;100.00
21129;BME280;10722;51.910;8.352;2022-10-22T04:47:45;100390.16;;;11.54;100.00
21129;BME280;10722;51.910;8.352;2022-10-22T04:50:31;100391.09;;;11.64;100.00
21129;BME280;10722;51.910;8.352;2022-10-22T04:53:17;100386.72;;;11.57;100.00
21129;BME280;10722;51.910;8.352;2022-10-22T04:56:09;100391.09;;;11.65;100.00
21129;BME280;10722;51.910;8.352;2022-10-22T04:59:02;100388.44;;;11.53;100.00
21129;BME280;10722;51.910;8.352;2022-10-22T05:01:48;100398.84;;;11.59;100.00
21129;BME280;10722;51.910;8.352;2022-10-22T05:04:33;100388.44;;;11.56;100.00
21129;BME280;10722;51.910;8.352;2022-10-22T05:07:19;100386.69;;;11.51;100.00
21129;BME280;10722;51.910;8.352;2022-10-22T05:10:05;100392.75;;;11.53;100.00
21129;BME280;10722;51.910;8.352;2022-10-22T05:12:50;100394.47;;;11.54;100.00
21129;BME280;10722;51.910;8.352;2022-10-22T05:15:35;100393.59;;;11.53;100.00
21129;BME280;10722;51.910;8.352;2022-10-22T05:18:20;100391.91;;;11.55;100.00
21129;BME280;10722;51.910;8.352;2022-10-22T05:21:13;100391.03;;;11.55;100.00
21129;BME280;10722;51.910;8.352;2022-10-22T05:23:59;100396.25;;;11.59;100.00
21129;BME280;10722;51.910;8.352;2022-10-22T05:26:44;100404.00;;;11.55;100.00
21129;BME280;10722;51.910;8.352;2022-10-22T05:29:30;100404.00;;;11.59;100.00
21129;BME280;10722;51.910;8.352;2022-10-22T05:32:19;100395.38;;;11.57;100.00
21129;BME280;10722;51.910;8.352;2022-10-22T05:35:04;100403.97;;;11.53;100.00
21129;BME280;10722;51.910;8.352;2022-10-22T05:37:50;100413.44;;;11.50;100.00
21129;BME280;10722;51.910;8.352;2022-10-22T05:40:37;100422.13;;;11.56;100.00
21129;BME280;10722;51.910;8.352;2022-10-22T05:43:22;100419.59;;;11.61;100.00
21129;BME280;10722;51.910;8.352;2022-10-22T05:46:16;100411.84;;;11.64;100.00
21129;BME280;10722;51.910;8.352;2022-10-22T05:49:07;100420.44;;;11.60;100.00
21129;BME280;10722;51.910;8.352;2022-10-22T05:51:52;100421.28;;;11.57;100.00
21129;BME280;10722;51.910;8.352;2022-10-22T05:54:37;100425.56;;;11.52;100.00
21129;BME280;10722;51.910;8.352;2022-10-22T05:57:23;100439.38;;;11.53;100.00
21129;BME280;10722;51.910;8.352;2022-10-22T06:00:10;100430.88;;;11.67;100.00
21129;BME280;10722;51.910;8.352;2022-10-22T06:03:04;100428.16;;;11.52;100.00
21129;BME280;10722;51.910;8.352;2022-10-22T06:05:50;100435.13;;;11.61;100.00
21129;BME280;10722;51.910;8.352;2022-10-22T06:08:35;100430.63;;;11.38;100.00
21129;BME280;10722;51.910;8.352;2022-10-22T06:11:24;100442.75;;;11.45;100.00
21129;BME280;10722;51.910;8.352;2022-10-22T06:14:10;100448.78;;;11.41;100.00
21129;BME280;10722;51.910;8.352;2022-10-22T06:16:58;100445.31;;;11.41;100.00
21129;BME280;10722;51.910;8.352;2022-10-22T06:19:44;100453.13;;;11.49;100.00
21129;BME280;10722;51.910;8.352;2022-10-22T06:22:29;100455.84;;;11.58;100.00
21129;BME280;10722;51.910;8.352;2022-10-22T06:25:14;100461.03;;;11.62;100.00
21129;BME280;10722;51.910;8.352;2022-10-22T06:28:00;100458.41;;;11.55;100.00
21129;BME280;10722;51.910;8.352;2022-10-22T06:30:45;100470.44;;;11.50;100.00
21129;BME280;10722;51.910;8.352;2022-10-22T06:33:32;100477.22;;;11.40;100.00
21129;BME280;10722;51.910;8.352;2022-10-22T06:36:20;100473.09;;;11.59;100.00
21129;BME280;10722;51.910;8.352;2022-10-22T06:39:05;100478.31;;;11.60;100.00
21129;BME280;10722;51.910;8.352;2022-10-22T06:41:51;100470.56;;;11.60;100.00
21129;BME280;10722;51.910;8.352;2022-10-22T06:44:37;100477.53;;;11.69;100.00
21129;BME280;10722;51.910;8.352;2022-10-22T06:47:22;100471.50;;;11.73;100.00
21129;BME280;10722;51.910;8.352;2022-10-22T06:50:08;100472.34;;;11.71;100.00
21129;BME280;10722;51.910;8.352;2022-10-22T06:52:53;100486.25;;;11.77;100.00
21129;BME280;10722;51.910;8.352;2022-10-22T06:55:38;100492.28;;;11.75;100.00
21129;BME280;10722;51.910;8.352;2022-10-22T06:58:24;100491.44;;;11.77;100.00
21129;BME280;10722;51.910;8.352;2022-10-22T07:01:11;100497.50;;;11.82;100.00
21129;BME280;10722;51.910;8.352;2022-10-22T07:04:01;100502.72;;;11.84;100.00
21129;BME280;10722;51.910;8.352;2022-10-22T07:06:46;100518.31;;;11.87;100.00
21129;BME280;10722;51.910;8.352;2022-10-22T07:09:31;100523.69;;;12.07;100.00
21129;BME280;10722;51.910;8.352;2022-10-22T07:12:17;100515.06;;;12.09;100.00
21129;BME280;10722;51.910;8.352;2022-10-22T07:15:03;100515.09;;;12.11;100.00
21129;BME280;10722;51.910;8.352;2022-10-22T07:17:48;100509.94;;;12.22;100.00
21129;BME280;10722;51.910;8.352;2022-10-22T07:20:34;100514.28;;;12.24;100.00
21129;BME280;10722;51.910;8.352;2022-10-22T07:23:19;100527.31;;;12.32;100.00
21129;BME280;10722;51.910;8.352;2022-10-22T07:26:06;100527.38;;;12.38;100.00
21129;BME280;10722;51.910;8.352;2022-10-22T07:28:51;100524.84;;;12.46;100.00
21129;BME280;10722;51.910;8.352;2022-10-22T07:31:36;100529.16;;;12.50;100.00
21129;BME280;10722;51.910;8.352;2022-10-22T07:34:22;100529.16;;;12.45;100.00
21129;BME280;10722;51.910;8.352;2022-10-22T07:37:07;100539.56;;;12.48;100.00
21129;BME280;10722;51.910;8.352;2022-10-22T07:39:53;100533.53;;;12.51;100.00
21129;BME280;10722;51.910;8.352;2022-10-22T07:42:38;100538.78;;;12.63;100.00
21129;BME280;10722;51.910;8.352;2022-10-22T07:45:23;100540.47;;;12.58;100.00
21129;BME280;10722;51.910;8.352;2022-10-22T07:48:09;100541.41;;;12.68;100.00
21129;BME280;10722;51.910;8.352;2022-10-22T07:50:54;100543.19;;;12.76;100.00
21129;BME280;10722;51.910;8.352;2022-10-22T07:53:40;100547.56;;;12.85;100.00
21129;BME280;10722;51.910;8.352;2022-10-22T07:56:25;100541.56;;;12.97;100.00
21129;BME280;10722;51.910;8.352;2022-10-22T07:59:11;100541.56;;;12.95;100.00
21129;BME280;10722;51.910;8.352;2022-10-22T08:01:56;100550.28;;;13.07;100.00
21129;BME280;10722;51.910;8.352;2022-10-22T08:04:41;100551.19;;;13.21;100.00
21129;BME280;10722;51.910;8.352;2022-10-22T08:07:27;100545.25;;;13.40;100.00
21129;BME280;10722;51.910;8.352;2022-10-22T08:10:12;100546.09;;;13.49;100.00
21129;BME280;10722;51.910;8.352;2022-10-22T08:12:58;100543.56;;;13.55;100.00
21129;BME280;10722;51.910;8.352;2022-10-22T08:15:43;100552.25;;;13.63;100.00
21129;BME280;10722;51.910;8.352;2022-10-22T08:18:33;100553.09;;;13.63;100.00
21129;BME280;10722;51.910;8.352;2022-10-22T08:21:19;100555.69;;;13.68;100.00
21129;BME280;10722;51.910;8.352;2022-10-22T08:24:05;100558.31;;;13.76;100.00
21129;BME280;10722;51.910;8.352;2022-10-22T08:26:55;100565.28;;;13.89;100.00
21129;BME280;10722;51.910;8.352;2022-10-22T08:29:41;100567.91;;;14.00;100.00
21129;BME280;10722;51.910;8.352;2022-10-22T08:32:26;100574.84;;;14.19;100.00
21129;BME280;10722;51.910;8.352;2022-10-22T08:35:11;100567.03;;;14.19;100.00
21129;BME280;10722;51.910;8.352;2022-10-22T08:38:01;100570.50;;;14.32;100.00
21129;BME280;10722;51.910;8.352;2022-10-22T08:41:06;100575.72;;;14.50;100.00
21129;BME280;10722;51.910;8.352;2022-10-22T08:44:16;100567.00;;;14.87;100.00
21129;BME280;10722;51.910;8.352;2022-10-22T08:47:28;100568.66;;;15.05;100.00
21129;BME280;10722;51.910;8.352;2022-10-22T08:50:11;100565.13;;;15.19;100.00
21129;BME280;10722;51.910;8.352;2022-10-22T08:53:03;100559.84;;;15.39;100.00
21129;BME280;10722;51.910;8.352;2022-10-22T08:55:52;100547.56;;;15.58;100.00
21129;BME280;10722;51.910;8.352;2022-10-22T08:58:54;100549.28;;;15.68;100.00
21129;BME280;10722;51.910;8.352;2022-10-22T09:01:44;100544.03;;;15.75;100.00
21129;BME280;10722;51.910;8.352;2022-10-22T09:04:35;100532.75;;;15.69;100.00
21129;BME280;10722;51.910;8.352;2022-10-22T09:07:23;100539.69;;;15.71;100.00
21129;BME280;10722;51.910;8.352;2022-10-22T09:10:10;100537.00;;;15.84;100.00
21129;BME280;10722;51.910;8.352;2022-10-22T09:12:56;100550.75;;;16.08;100.00
21129;BME280;10722;51.910;8.352;2022-10-22T09:15:43;100546.34;;;16.13;100.00
21129;BME280;10722;51.910;8.352;2022-10-22T09:24:47;100524.44;;;16.34;100.00
21129;BME280;10722;51.910;8.352;2022-10-22T09:27:33;100534.72;;;16.51;100.00
21129;BME280;10722;51.910;8.352;2022-10-22T09:30:21;100521.59;;;16.57;100.00
21129;BME280;10722;51.910;8.352;2022-10-22T09:35:57;100503.03;;;16.85;99.41
21129;BME280;10722;51.910;8.352;2022-10-22T09:38:51;100503.81;;;16.93;98.88
21129;BME280;10722;51.910;8.352;2022-10-22T09:41:37;100492.47;;;16.95;96.89
21129;BME280;10722;51.910;8.352;2022-10-22T09:44:23;100522.53;;;17.25;98.64
21129;BME280;10722;51.910;8.352;2022-10-22T09:47:31;100499.97;;;17.20;95.82
21129;BME280;10722;51.910;8.352;2022-10-22T09:50:38;100501.72;;;17.19;95.47
21129;BME280;10722;51.910;8.352;2022-10-22T09:53:28;100495.84;;;17.02;93.84
21129;BME280;10722;51.910;8.352;2022-10-22T09:56:27;100513.25;;;17.05;93.24
21129;BME280;10722;51.910;8.352;2022-10-22T09:59:14;100477.41;;;17.11;91.44
21129;BME280;10722;51.910;8.352;2022-10-22T10:02:14;100493.97;;;17.15;91.87
21129;BME280;10722;51.910;8.352;2022-10-22T10:05:22;100497.34;;;17.21;91.64
21129;BME280;10722;51.910;8.352;2022-10-22T10:08:13;100516.75;;;17.03;91.91
21129;BME280;10722;51.910;8.352;2022-10-22T10:11:22;100524.25;;;17.28;91.62
21129;BME280;10722;51.910;8.352;2022-10-22T10:17:04;100471.25;;;17.18;88.26
21129;BME280;10722;51.910;8.352;2022-10-22T10:19:59;100507.16;;;17.04;89.80
21129;BME280;10722;51.910;8.352;2022-10-22T10:26:24;100537.84;;;16.87;91.71
21129;BME280;10722;51.910;8.352;2022-10-22T10:29:18;100537.84;;;16.84;91.39
21129;BME280;10722;51.910;8.352;2022-10-22T10:41:27;100559.31;;;17.12;91.64
21129;BME280;10722;51.910;8.352;2022-10-22T10:56:29;100589.50;;;16.58;93.74
21129;BME280;10722;51.910;8.352;2022-10-22T11:05:49;100606.19;;;16.39;94.63
21129;BME280;10722;51.910;8.352;2022-10-22T11:09:01;100640.34;;;16.07;97.10
21129;BME280;10722;51.910;8.352;2022-10-22T11:11:53;100643.06;;;15.88;99.57
21129;BME280;10722;51.910;8.352;2022-10-22T11:17:45;100644.78;;;15.93;100.00
21129;BME280;10722;51.910;8.352;2022-10-22T11:23:33;100643.78;;;16.17;100.00
21129;BME280;10722;51.910;8.352;2022-10-22T11:26:31;100634.88;;;16.42;99.61
21129;BME280;10722;51.910;8.352;2022-10-22T11:29:23;100620.03;;;16.44;97.83
21129;BME280;10722;51.910;8.352;2022-10-22T11:32:17;100620.06;;;16.47;97.72
21129;BME280;10722;51.910;8.352;2022-10-22T11:35:06;100611.34;;;16.45;96.87
21129;BME280;10722;51.910;8.352;2022-10-22T11:37:56;100622.47;;;16.67;98.19
21129;BME280;10722;51.910;8.352;2022-10-22T11:40:49;100609.34;;;16.75;96.66
21129;BME280;10722;51.910;8.352;2022-10-22T11:46:57;100558.00;;;16.71;91.44
21129;BME280;10722;51.910;8.352;2022-10-22T11:49:45;100567.56;;;16.73;91.96
21129;BME280;10722;51.910;8.352;2022-10-22T11:52:44;100578.09;;;16.66;91.59
21129;BME280;10722;51.910;8.352;2022-10-22T11:55:33;100571.19;;;16.58;91.90
21129;BME280;10722;51.910;8.352;2022-10-22T11:58:34;100577.34;;;16.53;92.10
21129;BME280;10722;51.910;8.352;2022-10-22T12:01:26;100587.81;;;16.47;92.30
21129;BME280;10722;51.910;8.352;2022-10-22T12:04:19;100602.66;;;16.43;92.75
21129;BME280;10722;51.910;8.352;2022-10-22T12:07:38;100587.94;;;16.33;92.23
21129;BME280;10722;51.910;8.352;2022-10-22T12:17:30;100611.66;;;16.05;93.11
21129;BME280;10722;51.910;8.352;2022-10-22T12:20:16;100614.28;;;16.02;93.22
21129;BME280;10722;51.910;8.352;2022-10-22T12:23:02;100609.94;;;16.03;93.25
21129;BME280;10722;51.910;8.352;2022-10-22T12:25:47;100613.38;;;16.05;93.35
21129;BME280;10722;51.910;8.352;2022-10-22T12:28:38;100616.00;;;16.08;92.95
21129;BME280;10722;51.910;8.352;2022-10-22T12:31:23;100610.72;;;16.12;93.17
21129;BME280;10722;51.910;8.352;2022-10-22T12:34:17;100599.41;;;16.17;91.96
21129;BME280;10722;51.910;8.352;2022-10-22T12:37:03;100598.44;;;16.27;91.58
21129;BME280;10722;51.910;8.352;2022-10-22T12:39:50;100597.56;;;16.26;91.23
21129;BME280;10722;51.910;8.352;2022-10-22T12:42:35;100586.25;;;16.29;91.02
21129;BME280;10722;51.910;8.352;2022-10-22T12:45:22;100601.00;;;16.36;91.69
21129;BME280;10722;51.910;8.352;2022-10-22T12:48:31;100602.66;;;16.45;90.82
21129;BME280;10722;51.910;8.352;2022-10-22T12:51:18;100596.50;;;16.53;90.88
21129;BME280;10722;51.910;8.352;2022-10-22T12:54:13;100587.84;;;16.45;90.06
21129;BME280;10722;51.910;8.352;2022-10-22T12:57:02;100581.66;;;16.55;89.45
21129;BME280;10722;51.910;8.352;2022-10-22T12:59:50;100568.50;;;16.66;88.41
21129;BME280;10722;51.910;8.352;2022-10-22T13:02:35;100563.22;;;16.69;87.97
21129;BME280;10722;51.910;8.352;2022-10-22T13:05:25;100556.25;;;16.71;87.63
21129;BME280;10722;51.910;8.352;2022-10-22T13:08:16;100531.84;;;16.74;85.94
21129;BME280;10722;51.910;8.352;2022-10-22T13:11:09;100538.88;;;16.69;85.72
21129;BME280;10722;51.910;8.352;2022-10-22T13:14:14;100531.03;;;16.69;85.62
21129;BME280;10722;51.910;8.352;2022-10-22T13:17:40;100544.97;;;16.68;85.35
21129;BME280;10722;51.910;8.352;2022-10-22T13:20:27;100526.78;;;16.62;84.11
21129;BME280;10722;51.910;8.352;2022-10-22T13:23:20;100538.94;;;16.63;84.14
21129;BME280;10722;51.910;8.352;2022-10-22T13:26:15;100531.09;;;16.61;83.81
21129;BME280;10722;51.910;8.352;2022-10-22T13:29:09;100534.53;;;16.66;83.79
21129;BME280;10722;51.910;8.352;2022-10-22T13:31:55;100546.56;;;16.86;84.21
21129;BME280;10722;51.910;8.352;2022-10-22T13:34:42;100550.84;;;16.91;84.20
21129;BME280;10722;51.910;8.352;2022-10-22T13:37:30;100516.09;;;16.83;82.63
21129;BME280;10722;51.910;8.352;2022-10-22T13:40:17;100516.28;;;16.65;82.33
21129;BME280;10722;51.910;8.352;2022-10-22T13:43:03;100547.59;;;16.68;83.62
21129;BME280;10722;51.910;8.352;2022-10-22T13:45:52;100552.78;;;16.69;84.23
21129;BME280;10722;51.910;8.352;2022-10-22T13:48:38;100561.63;;;16.59;84.17
21129;BME280;10722;51.910;8.352;2022-10-22T13:51:34;100555.53;;;16.57;84.03
21129;BME280;10722;51.910;8.352;2022-10-22T13:54:22;100553.78;;;16.57;83.64
21129;BME280;10722;51.910;8.352;2022-10-22T13:57:09;100565.94;;;16.60;84.04
21129;BME280;10722;51.910;8.352;2022-10-22T13:59:55;100579.03;;;16.55;84.71
21129;BME280;10722;51.910;8.352;2022-10-22T14:02:40;100572.94;;;16.55;84.33
21129;BME280;10722;51.910;8.352;2022-10-22T14:05:27;100584.41;;;16.42;84.42
21129;BME280;10722;51.910;8.352;2022-10-22T14:08:18;100597.47;;;16.39;85.54
21129;BME280;10722;51.910;8.352;2022-10-22T14:11:04;100598.34;;;16.39;85.24
21129;BME280;10722;51.910;8.352;2022-10-22T14:13:49;100611.50;;;16.28;86.08
21129;BME280;10722;51.910;8.352;2022-10-22T14:16:36;100617.59;;;16.24;86.44
21129;BME280;10722;51.910;8.352;2022-10-22T14:19:21;100627.19;;;16.24;86.94
21129;BME280;10722;51.910;8.352;2022-10-22T14:22:12;100630.63;;;16.27;87.20
21129;BME280;10722;51.910;8.352;2022-10-22T14:24:58;100628.94;;;16.22;86.88
21129;BME280;10722;51.910;8.352;2022-10-22T14:27:45;100641.09;;;16.24;87.83
21129;BME280;10722;51.910;8.352;2022-10-22T14:30:30;100639.38;;;16.22;87.11
21129;BME280;10722;51.910;8.352;2022-10-22T14:33:22;100627.19;;;16.21;87.34
21129;BME280;10722;51.910;8.352;2022-10-22T14:36:17;100650.69;;;16.22;87.81
21129;BME280;10722;51.910;8.352;2022-10-22T14:39:03;100666.34;;;16.21;88.36
21129;BME280;10722;51.910;8.352;2022-10-22T14:41:49;100645.50;;;16.18;87.95
21129;BME280;10722;51.910;8.352;2022-10-22T14:44:34;100655.06;;;16.17;88.40
21129;BME280;10722;51.910;8.352;2022-10-22T14:47:19;100666.38;;;16.16;88.61
21129;BME280;10722;51.910;8.352;2022-10-22T14:50:05;100669.03;;;16.11;88.84
21129;BME280;10722;51.910;8.352;2022-10-22T14:52:51;100676.88;;;16.08;89.01
21129;BME280;10722;51.910;8.352;2022-10-22T14:55:36;100682.13;;;16.05;89.28
21129;BME280;10722;51.910;8.352;2022-10-22T14:58:22;100693.44;;;16.03;90.06
21129;BME280;10722;51.910;8.352;2022-10-22T15:01:08;100676.91;;;16.04;89.02
21129;BME280;10722;51.910;8.352;2022-10-22T15:03:55;100669.94;;;16.01;88.58
21129;BME280;10722;51.910;8.352;2022-10-22T15:06:40;100672.53;;;16.04;87.79
21129;BME280;10722;51.910;8.352;2022-10-22T15:09:25;100682.13;;;16.02;88.08
21129;BME280;10722;51.910;8.352;2022-10-22T15:12:11;100668.22;;;16.03;87.93
21129;BME280;10722;51.910;8.352;2022-10-22T15:14:56;100688.22;;;16.03;88.61
21129;BME280;10722;51.910;8.352;2022-10-22T15:17:42;100685.59;;;16.01;88.64
21129;BME280;10722;51.910;8.352;2022-10-22T15:20:28;100692.56;;;15.99;89.20
21129;BME280;10722;51.910;8.352;2022-10-22T15:23:14;100689.97;;;15.99;89.35
21129;BME280;10722;51.910;8.352;2022-10-22T15:25:59;100689.97;;;16.01;89.35
21129;BME280;10722;51.910;8.352;2022-10-22T15:28:45;100677.81;;;16.00;88.14
21129;BME280;10722;51.910;8.352;2022-10-22T15:32:00;100677.78;;;16.01;88.37
21129;BME280;10722;51.910;8.352;2022-10-22T15:34:46;100678.69;;;15.96;88.47
21129;BME280;10722;51.910;8.352;2022-10-22T15:37:32;100694.34;;;15.94;89.05
21129;BME280;10722;51.910;8.352;2022-10-22T15:40:18;100696.97;;;15.88;89.02
21129;BME280;10722;51.910;8.352;2022-10-22T15:43:03;100699.59;;;15.85;89.24
21129;BME280;10722;51.910;8.352;2022-10-22T15:46:23;100717.88;;;15.79;90.05
21129;BME280;10722;51.910;8.352;2022-10-22T15:49:08;100717.00;;;15.77;90.25
21129;BME280;10722;51.910;8.352;2022-10-22T15:51:54;100707.44;;;15.79;89.52